Seabourn Spirit — C6FR4 — position and weather

sailwx.info

Track history (hours):
 
Tides and Currents Weather Stations Pressure Air Temp Water Temp Dewpoint Dewpoint Depression Visibility Wind Speed Wind Dir Waves Ship Positions

Seabourn Spirit

Operator: Cunard Seabourn

Last reported at 2018-Oct-20 13:28 UTC. Time now 2018-Oct-20 13:41 UTC.
Position N 37°08' W 008°32'.

Length 133 m; draft 5.6 m.

Type: Ship. MMSI: 311083000.

Date/timePositionNaut miles runAvg speedWind from/ knotsBaromVisibWave heightAir tempDewpointWater temp
2018-Oct-20 13:28N 37°08' W 008°32'0 0.0
2018-Oct-20 12:58N 37°08' W 008°32'0 0.0
2018-Oct-20 12:28N 37°08' W 008°32'0 0.0
2018-Oct-20 11:58N 37°08' W 008°32'0 0.0
2018-Oct-20 11:25N 37°08' W 008°32'0 0.0
2018-Oct-20 10:58N 37°08' W 008°32'0 0.0
2018-Oct-20 10:28N 37°08' W 008°32'0 0.0
2018-Oct-20 09:58N 37°08' W 008°32'0 0.0
2018-Oct-20 09:28N 37°08' W 008°32'0 0.0
2018-Oct-20 08:58N 37°08' W 008°32'0 0.0
2018-Oct-20 08:28N 37°08' W 008°32'0 0.0
2018-Oct-20 07:58N 37°08' W 008°32'0 0.1
2018-Oct-20 07:30N 37°08' W 008°32'2 4.3
2018-Oct-20 07:03N 37°06' W 008°32'010.6
2018-Oct-20 07:01N 37°05' W 008°32'510.1
2018-Oct-20 06:30N 37°01' W 008°36'510.7
2018-Oct-20 06:03N 36°59' W 008°41'0 8.6
2018-Oct-20 06:00N 36°58' W 008°41'5 8.7
2018-Oct-20 05:29N 36°56' W 008°46'4 8.5
2018-Oct-20 05:04N 36°54' W 008°50'0 8.5
2018-Oct-20 05:00N 36°54' W 008°50'8 8.2
2018-Oct-20 04:05N 36°50' W 008°58'11 8.0
2018-Oct-20 02:41N 36°56' W 009°10'5 9.6
2018-Oct-20 02:09N 37°01' W 009°12'911.8
2018-Oct-20 01:22N 37°10' W 009°13'411.7
2018-Oct-20 01:03N 37°13' W 009°14'111.6
2018-Oct-20 01:01N 37°14' W 009°14'611.5
2018-Oct-20 00:30N 37°20' W 009°14'511.4
2018-Oct-20 00:03N 37°25' W 009°15'111.6
2018-Oct-20 00:00N 37°25' W 009°15'611.5
2018-Oct-19 23:30N 37°31' W 009°16'511.3
2018-Oct-19 23:03N 37°36' W 009°16'111.6
2018-Oct-19 23:00N 37°37' W 009°16'611.3
2018-Oct-19 22:30N 37°42' W 009°17'511.3
2018-Oct-19 22:03N 37°47' W 009°18'111.4
2018-Oct-19 22:01N 37°48' W 009°18'611.5
2018-Oct-19 21:30N 37°54' W 009°19'612.1
2018-Oct-19 21:03N 37°59' W 009°20'112.1
2018-Oct-19 21:00N 37°60' W 009°20'612.1
2018-Oct-19 20:30N 38°06' W 009°20'512.2
2018-Oct-19 20:03N 38°11' W 009°21'112.1
2018-Oct-19 20:00N 38°12' W 009°21'611.8
2018-Oct-19 19:31N 38°18' W 009°21'511.3
2018-Oct-19 19:03N 38°23' W 009°22'110.9
2018-Oct-19 19:01N 38°23' W 009°22'510.9
2018-Oct-19 18:30N 38°29' W 009°22'511.3
2018-Oct-19 18:03N 38°34' W 009°23'111.5
2018-Oct-19 18:01N 38°34' W 009°23'5 9.7
2018-Oct-19 17:30N 38°39' W 009°21'510.8
2018-Oct-19 17:03N 38°41' W 009°15'111.8
2018-Oct-19 17:00N 38°41' W 009°14'510.4
2018-Oct-19 16:30N 38°42' W 009°08'1 1.3
2018-Oct-19 15:59N 38°43' W 009°07'0 0.0
2018-Oct-19 15:29N 38°43' W 009°07'0 0.0
2018-Oct-19 15:02N 38°43' W 009°07'0 0.0
2018-Oct-19 14:59N 38°43' W 009°07'0 0.0
2018-Oct-19 13:59N 38°43' W 009°07'0 0.0
2018-Oct-19 13:29N 38°43' W 009°07'0 0.0
2018-Oct-19 13:02N 38°43' W 009°07'0 0.0
2018-Oct-19 12:59N 38°43' W 009°07'0 0.0
2018-Oct-19 12:29N 38°43' W 009°07'0 0.0
2018-Oct-19 12:02N 38°43' W 009°07'0 0.0
2018-Oct-19 11:59N 38°43' W 009°07'0 0.0
2018-Oct-19 11:29N 38°43' W 009°07'0 0.0
2018-Oct-19 11:02N 38°43' W 009°07'0 0.0
2018-Oct-19 10:59N 38°43' W 009°07'0 0.0
2018-Oct-19 10:29N 38°43' W 009°07'0 0.0
2018-Oct-19 10:02N 38°43' W 009°07'0 0.0
2018-Oct-19 09:59N 38°43' W 009°07'0 0.0
2018-Oct-19 09:29N 38°43' W 009°07'0 0.0
2018-Oct-19 09:02N 38°43' W 009°07'0 0.0
2018-Oct-19 08:59N 38°43' W 009°07'0 0.0
2018-Oct-19 08:29N 38°43' W 009°07'0 0.0
2018-Oct-19 07:59N 38°43' W 009°07'0 0.0
2018-Oct-19 07:29N 38°43' W 009°07'0 0.0
2018-Oct-19 07:02N 38°43' W 009°07'0 0.0
2018-Oct-19 06:59N 38°43' W 009°07'0 0.0
2018-Oct-19 06:29N 38°43' W 009°07'0 0.0
2018-Oct-19 06:03N 38°43' W 009°07'0 0.0
2018-Oct-19 06:00N 38°43' W 009°07'0 1.0
2018-Oct-19 05:30N 38°42' W 009°08'4 8.4
2018-Oct-19 05:03N 38°41' W 009°12'0 9.4
2018-Oct-19 05:00N 38°41' W 009°13'4 8.7
2018-Oct-19 04:30N 38°40' W 009°18'4 8.8
2018-Oct-19 04:03N 38°38' W 009°22'0 8.2
2018-Oct-19 04:01N 38°37' W 009°22'4 8.1
2018-Oct-19 03:30N 38°33' W 009°23'4 9.2
2018-Oct-19 03:03N 38°29' W 009°23'0 8.7
2018-Oct-19 03:00N 38°29' W 009°23'5 9.4
2018-Oct-19 02:31N 38°24' W 009°22'510.7
2018-Oct-19 02:04N 38°19' W 009°22'111.4
2018-Oct-19 02:01N 38°19' W 009°22'611.4
2018-Oct-19 01:30N 38°13' W 009°22'511.4
2018-Oct-19 01:04N 38°08' W 009°22'111.4
2018-Oct-19 01:01N 38°07' W 009°22'611.3
2018-Oct-19 00:30N 38°02' W 009°22'511.1
2018-Oct-19 00:03N 37°57' W 009°22'110.3
2018-Oct-19 00:00N 37°56' W 009°22'611.1
2018-Oct-18 23:30N 37°51' W 009°22'511.2
2018-Oct-18 23:03N 37°46' W 009°22'110.4
2018-Oct-18 23:01N 37°45' W 009°22'611.0
2018-Oct-18 22:30N 37°39' W 009°21'512.1
2018-Oct-18 22:03N 37°34' W 009°21'112.6
2018-Oct-18 22:00N 37°33' W 009°21'2512.2
2018-Oct-18 19:59N 37°09' W 009°20'37 6.8
2018-Oct-18 14:30N 37°03' W 008°34'5 3.2
2018-Oct-18 12:58N 37°08' W 008°32'0 0.0
2018-Oct-18 12:28N 37°08' W 008°32'0 0.0
2018-Oct-18 11:58N 37°08' W 008°32'0 0.0
2018-Oct-18 11:28N 37°08' W 008°32'0 0.0
2018-Oct-18 10:58N 37°08' W 008°32'0 0.0
2018-Oct-18 10:28N 37°08' W 008°32'0 0.0
2018-Oct-18 10:01N 37°08' W 008°32'0 0.0
2018-Oct-18 09:58N 37°08' W 008°32'0 0.0
2018-Oct-18 09:28N 37°08' W 008°32'0 0.0
2018-Oct-18 09:01N 37°08' W 008°32'0 0.0
2018-Oct-18 08:58N 37°08' W 008°32'0 0.0
2018-Oct-18 08:28N 37°08' W 008°32'0 0.0
2018-Oct-18 07:58N 37°08' W 008°32'0 0.0
2018-Oct-18 07:10N 37°08' W 008°32'0 0.0
2018-Oct-18 07:01N 37°08' W 008°32'0 0.0
2018-Oct-18 06:58N 37°08' W 008°32'0 0.2
2018-Oct-18 06:31N 37°08' W 008°32'2 5.5
2018-Oct-18 06:03N 37°05' W 008°32'0 7.8
2018-Oct-18 06:00N 37°05' W 008°32'510.9
2018-Oct-18 05:30N 37°02' W 008°25'512.1
2018-Oct-18 05:03N 37°01' W 008°19'112.5
2018-Oct-18 05:00N 37°00' W 008°18'612.3
2018-Oct-18 04:31N 36°58' W 008°11'612.2
2018-Oct-18 03:59N 36°56' W 008°04'612.5
2018-Oct-18 03:30N 36°53' W 007°57'7411.4
2018-Oct-17 21:01N 36°35' W 006°27'011.7
2018-Oct-17 21:00N 36°35' W 006°27'611.4
2018-Oct-17 20:30N 36°34' W 006°20'3 6.0
2018-Oct-17 20:03N 36°32' W 006°17'0 1.3
2018-Oct-17 20:00N 36°32' W 006°17'0 0.0
2018-Oct-17 19:30N 36°32' W 006°17'0 0.0
2018-Oct-17 19:03N 36°32' W 006°17'0 0.0
2018-Oct-17 19:00N 36°32' W 006°17'0 0.0
2018-Oct-17 18:24N 36°32' W 006°17'0 0.0
2018-Oct-17 18:03N 36°32' W 006°17'0 0.0
2018-Oct-17 18:00N 36°32' W 006°17'0 0.0
2018-Oct-17 17:30N 36°32' W 006°17'0 0.0
2018-Oct-17 17:03N 36°32' W 006°17'0 0.0
2018-Oct-17 16:57N 36°32' W 006°17'0 0.0
2018-Oct-17 16:30N 36°32' W 006°17'0 0.0
2018-Oct-17 16:03N 36°32' W 006°17'0 0.0
2018-Oct-17 16:00N 36°32' W 006°17'0 0.0
2018-Oct-17 15:24N 36°32' W 006°17'0 0.0
2018-Oct-17 15:03N 36°32' W 006°17'0 0.0
2018-Oct-17 15:00N 36°32' W 006°17'0 0.0
2018-Oct-17 14:03N 36°32' W 006°17'0 0.0
2018-Oct-17 13:27N 36°32' W 006°17'0 0.0
2018-Oct-17 12:54N 36°32' W 006°17'0 0.0
2018-Oct-17 12:30N 36°32' W 006°17'0 0.0
2018-Oct-17 12:00N 36°32' W 006°17'0 0.0
2018-Oct-17 11:27N 36°32' W 006°17'0 0.0
2018-Oct-17 10:57N 36°32' W 006°17'0 0.0
2018-Oct-17 10:30N 36°32' W 006°17'0 0.0
2018-Oct-17 10:03N 36°32' W 006°17'0 0.0
2018-Oct-17 10:00N 36°32' W 006°17'0 0.0
2018-Oct-17 09:27N 36°32' W 006°17'0 0.0
2018-Oct-17 09:03N 36°32' W 006°17'0 0.1
2018-Oct-17 09:00N 36°32' W 006°17'0 0.0
2018-Oct-17 08:21N 36°32' W 006°17'0 0.0
2018-Oct-17 08:03N 36°32' W 006°17'0 0.1
2018-Oct-17 08:00N 36°32' W 006°17'0 0.0
2018-Oct-17 07:30N 36°32' W 006°17'0 0.0
2018-Oct-17 07:00N 36°32' W 006°17'0 0.0
2018-Oct-17 06:30N 36°32' W 006°17'0 0.0
2018-Oct-17 06:03N 36°32' W 006°17'0 0.0
2018-Oct-17 06:00N 36°32' W 006°17'0 0.0
2018-Oct-17 05:24N 36°32' W 006°17'0 0.0
2018-Oct-17 05:03N 36°32' W 006°17'0 0.0
2018-Oct-17 05:00N 36°32' W 006°17'0 0.2
2018-Oct-17 04:30N 36°32' W 006°17'1 3.3
2018-Oct-17 04:03N 36°33' W 006°18'0 9.2
2018-Oct-17 04:00N 36°34' W 006°19'3 6.1
2018-Oct-17 03:30N 36°33' W 006°22'3 5.9
2018-Oct-17 03:03N 36°31' W 006°25'0 6.1
2018-Oct-17 03:00N 36°31' W 006°25'55 2.7
2018-Oct-16 06:19N 36°08' W 005°23'2 7.7
2018-Oct-16 06:03N 36°06' W 005°22'0 6.1
2018-Oct-16 05:59N 36°06' W 005°22'3 7.1
2018-Oct-16 05:30N 36°06' W 005°18'4 8.4
2018-Oct-16 05:03N 36°08' W 005°14'0 8.2
2018-Oct-16 05:00N 36°08' W 005°13'  
2018-Oct-13 16:17N 37°09' W 000°57'3 8.5
2018-Oct-13 15:59N 37°10' W 000°54'5 8.4
2018-Oct-13 15:27N 37°13' W 000°49'3 8.4
2018-Oct-13 15:03N 37°15' W 000°46'1 8.3
2018-Oct-13 15:00N 37°15' W 000°46'4 8.5
2018-Oct-13 14:30N 37°17' W 000°41'11 8.7
2018-Oct-13 13:15N 37°24' W 000°30'2 8.6
2018-Oct-13 13:01N 37°25' W 000°28'0 8.7
2018-Oct-13 12:59N 37°25' W 000°27'5 9.0
2018-Oct-13 12:23N 37°28' W 000°22'4 9.3
2018-Oct-13 12:01N 37°30' W 000°18'0 9.2
2018-Oct-13 12:00N 37°30' W 000°18'5 9.6
2018-Oct-13 11:26N 37°33' W 000°13'4 9.6
2018-Oct-13 11:01N 37°36' W 000°09'0 9.9
2018-Oct-13 11:00N 37°36' W 000°09'7 9.7
2018-Oct-13 10:15N 37°40' W 000°01'155 9.8
2018-Oct-12 18:32N 39°22' E 002°28'111.5
2018-Oct-12 18:29N 39°22' E 002°28'410.2
2018-Oct-12 18:03N 39°26' E 002°32'110.1
2018-Oct-12 18:00N 39°26' E 002°33'510.1
2018-Oct-12 17:30N 39°30' E 002°37'4 7.9
2018-Oct-12 17:03N 39°33' E 002°38'0 4.1
2018-Oct-12 17:00N 39°33' E 002°38'0 0.1
2018-Oct-12 16:30N 39°33' E 002°38'0 0.0
2018-Oct-12 16:03N 39°33' E 002°38'0 0.0
2018-Oct-12 16:00N 39°33' E 002°38'0 0.0
2018-Oct-12 15:27N 39°33' E 002°38'0 0.0
2018-Oct-12 15:03N 39°33' E 002°38'0 0.0
2018-Oct-12 15:00N 39°33' E 002°38'0 0.0
2018-Oct-12 14:03N 39°33' E 002°38'0 0.0
2018-Oct-12 14:00N 39°33' E 002°38'0 0.0
2018-Oct-12 13:30N 39°33' E 002°38'0 0.0
2018-Oct-12 13:03N 39°33' E 002°38'0 0.0
2018-Oct-12 13:00N 39°33' E 002°38'0 0.0
2018-Oct-12 12:30N 39°33' E 002°38'0 0.0
2018-Oct-12 12:03N 39°33' E 002°38'0 0.0
2018-Oct-12 12:00N 39°33' E 002°38'0 0.0
2018-Oct-12 11:27N 39°33' E 002°38'0 0.0
2018-Oct-12 11:03N 39°33' E 002°38'0 0.0
2018-Oct-12 11:00N 39°33' E 002°38'0 0.0
2018-Oct-12 10:30N 39°33' E 002°38'0 0.0
2018-Oct-12 10:03N 39°33' E 002°38'0 0.0
2018-Oct-12 10:00N 39°33' E 002°38'0 0.0
2018-Oct-12 09:30N 39°33' E 002°38'0 0.0
2018-Oct-12 09:03N 39°33' E 002°38'0 0.0
2018-Oct-12 09:00N 39°33' E 002°38'0 0.0
2018-Oct-12 08:30N 39°33' E 002°38'0 0.0
2018-Oct-12 08:03N 39°33' E 002°38'0 0.0
2018-Oct-12 08:00N 39°33' E 002°38'0 0.0
2018-Oct-12 07:30N 39°33' E 002°38'0 0.0
2018-Oct-12 07:03N 39°33' E 002°38'0 0.0
2018-Oct-12 07:00N 39°33' E 002°38'0 0.0
2018-Oct-12 06:30N 39°33' E 002°38'0 0.7
2018-Oct-12 06:03N 39°33' E 002°38'0 4.1
2018-Oct-12 06:00N 39°33' E 002°39'4 8.2
2018-Oct-12 05:30N 39°30' E 002°36'4 8.6
2018-Oct-12 05:03N 39°27' E 002°33'0 7.9
2018-Oct-12 05:00N 39°26' E 002°33'4 7.6
2018-Oct-12 04:30N 39°26' E 002°28'4 7.1
2018-Oct-12 04:00N 39°29' E 002°24'91 8.6
2018-Oct-11 17:28N 40°59' E 002°14'611.9
2018-Oct-11 16:56N 41°06' E 002°14'511.6
2018-Oct-11 16:31N 41°10' E 002°14'511.2
2018-Oct-11 16:03N 41°16' E 002°14'110.9
2018-Oct-11 16:01N 41°16' E 002°14'5 9.8
2018-Oct-11 15:30N 41°21' E 002°12'2 1.4
2018-Oct-11 14:22N 41°22' E 002°11'0 0.0
2018-Oct-11 12:52N 41°22' E 002°11'0 0.0
2018-Oct-11 12:04N 41°22' E 002°11'0 0.0
2018-Oct-11 11:58N 41°22' E 002°11'0 0.0
2018-Oct-11 11:25N 41°22' E 002°11'0 0.0
2018-Oct-11 10:31N 41°22' E 002°11'0 0.0
2018-Oct-11 10:28N 41°22' E 002°11'0 0.0
2018-Oct-11 10:01N 41°22' E 002°11'0 0.0
2018-Oct-11 09:52N 41°22' E 002°11'0 0.0
2018-Oct-11 09:28N 41°22' E 002°11'0 0.0
2018-Oct-11 08:52N 41°22' E 002°11'0 0.0
2018-Oct-11 08:28N 41°22' E 002°11'112 7.2
2018-Oct-10 16:47N 39°30' E 002°22'310.5
2018-Oct-10 16:30N 39°28' E 002°25'510.6
2018-Oct-10 16:03N 39°26' E 002°30'111.1
2018-Oct-10 16:00N 39°26' E 002°31'510.3
2018-Oct-10 15:30N 39°29' E 002°36'4 9.3
2018-Oct-10 15:03N 39°33' E 002°39'0 7.6
2018-Oct-10 15:00N 39°33' E 002°38'0 0.6
2018-Oct-10 14:28N 39°33' E 002°38'0 0.0
2018-Oct-10 13:58N 39°33' E 002°38'  
Track history (hours):
 
Tides and Currents Weather Stations Pressure Air Temp Water Temp Dewpoint Dewpoint Depression Visibility Wind Speed Wind Dir Waves Ship Positions

Seabourn Spirit

Operator: Cunard Seabourn

Last reported at 2018-Oct-20 13:28 UTC. Time now 2018-Oct-20 13:41 UTC.
Position N 37°08' W 008°32'.

Length 133 m; draft 5.6 m.

Type: Ship. MMSI: 311083000.

Date/timePositionNaut miles runAvg speedWind from/ knotsBaromVisibWave heightAir tempDewpointWater temp
2018-Oct-20 13:28N 37°08' W 008°32'0 0.0
2018-Oct-20 12:58N 37°08' W 008°32'0 0.0
2018-Oct-20 12:28N 37°08' W 008°32'0 0.0
2018-Oct-20 11:58N 37°08' W 008°32'0 0.0
2018-Oct-20 11:25N 37°08' W 008°32'0 0.0
2018-Oct-20 10:58N 37°08' W 008°32'0 0.0
2018-Oct-20 10:28N 37°08' W 008°32'0 0.0
2018-Oct-20 09:58N 37°08' W 008°32'0 0.0
2018-Oct-20 09:28N 37°08' W 008°32'0 0.0
2018-Oct-20 08:58N 37°08' W 008°32'0 0.0
2018-Oct-20 08:28N 37°08' W 008°32'0 0.0
2018-Oct-20 07:58N 37°08' W 008°32'0 0.1
2018-Oct-20 07:30N 37°08' W 008°32'2 4.3
2018-Oct-20 07:03N 37°06' W 008°32'010.6
2018-Oct-20 07:01N 37°05' W 008°32'510.1
2018-Oct-20 06:30N 37°01' W 008°36'510.7
2018-Oct-20 06:03N 36°59' W 008°41'0 8.6
2018-Oct-20 06:00N 36°58' W 008°41'5 8.7
2018-Oct-20 05:29N 36°56' W 008°46'4 8.5
2018-Oct-20 05:04N 36°54' W 008°50'0 8.5
2018-Oct-20 05:00N 36°54' W 008°50'8 8.2
2018-Oct-20 04:05N 36°50' W 008°58'11 8.0
2018-Oct-20 02:41N 36°56' W 009°10'5 9.6
2018-Oct-20 02:09N 37°01' W 009°12'911.8
2018-Oct-20 01:22N 37°10' W 009°13'411.7
2018-Oct-20 01:03N 37°13' W 009°14'111.6
2018-Oct-20 01:01N 37°14' W 009°14'611.5
2018-Oct-20 00:30N 37°20' W 009°14'511.4
2018-Oct-20 00:03N 37°25' W 009°15'111.6
2018-Oct-20 00:00N 37°25' W 009°15'611.5
2018-Oct-19 23:30N 37°31' W 009°16'511.3
2018-Oct-19 23:03N 37°36' W 009°16'111.6
2018-Oct-19 23:00N 37°37' W 009°16'611.3
2018-Oct-19 22:30N 37°42' W 009°17'511.3
2018-Oct-19 22:03N 37°47' W 009°18'111.4
2018-Oct-19 22:01N 37°48' W 009°18'611.5
2018-Oct-19 21:30N 37°54' W 009°19'612.1
2018-Oct-19 21:03N 37°59' W 009°20'112.1
2018-Oct-19 21:00N 37°60' W 009°20'612.1
2018-Oct-19 20:30N 38°06' W 009°20'512.2
2018-Oct-19 20:03N 38°11' W 009°21'112.1
2018-Oct-19 20:00N 38°12' W 009°21'611.8
2018-Oct-19 19:31N 38°18' W 009°21'511.3
2018-Oct-19 19:03N 38°23' W 009°22'110.9
2018-Oct-19 19:01N 38°23' W 009°22'510.9
2018-Oct-19 18:30N 38°29' W 009°22'511.3
2018-Oct-19 18:03N 38°34' W 009°23'111.5
2018-Oct-19 18:01N 38°34' W 009°23'5 9.7
2018-Oct-19 17:30N 38°39' W 009°21'510.8
2018-Oct-19 17:03N 38°41' W 009°15'111.8
2018-Oct-19 17:00N 38°41' W 009°14'510.4
2018-Oct-19 16:30N 38°42' W 009°08'1 1.3
2018-Oct-19 15:59N 38°43' W 009°07'0 0.0
2018-Oct-19 15:29N 38°43' W 009°07'0 0.0
2018-Oct-19 15:02N 38°43' W 009°07'0 0.0
2018-Oct-19 14:59N 38°43' W 009°07'0 0.0
2018-Oct-19 13:59N 38°43' W 009°07'0 0.0
2018-Oct-19 13:29N 38°43' W 009°07'0 0.0
2018-Oct-19 13:02N 38°43' W 009°07'0 0.0
2018-Oct-19 12:59N 38°43' W 009°07'0 0.0
2018-Oct-19 12:29N 38°43' W 009°07'0 0.0
2018-Oct-19 12:02N 38°43' W 009°07'0 0.0
2018-Oct-19 11:59N 38°43' W 009°07'0 0.0
2018-Oct-19 11:29N 38°43' W 009°07'0 0.0
2018-Oct-19 11:02N 38°43' W 009°07'0 0.0
2018-Oct-19 10:59N 38°43' W 009°07'0 0.0
2018-Oct-19 10:29N 38°43' W 009°07'0 0.0
2018-Oct-19 10:02N 38°43' W 009°07'0 0.0
2018-Oct-19 09:59N 38°43' W 009°07'0 0.0
2018-Oct-19 09:29N 38°43' W 009°07'0 0.0
2018-Oct-19 09:02N 38°43' W 009°07'0 0.0
2018-Oct-19 08:59N 38°43' W 009°07'0 0.0
2018-Oct-19 08:29N 38°43' W 009°07'0 0.0
2018-Oct-19 07:59N 38°43' W 009°07'0 0.0
2018-Oct-19 07:29N 38°43' W 009°07'0 0.0
2018-Oct-19 07:02N 38°43' W 009°07'0 0.0
2018-Oct-19 06:59N 38°43' W 009°07'0 0.0
2018-Oct-19 06:29N 38°43' W 009°07'0 0.0
2018-Oct-19 06:03N 38°43' W 009°07'0 0.0
2018-Oct-19 06:00N 38°43' W 009°07'0 1.0
2018-Oct-19 05:30N 38°42' W 009°08'4 8.4
2018-Oct-19 05:03N 38°41' W 009°12'0 9.4
2018-Oct-19 05:00N 38°41' W 009°13'4 8.7
2018-Oct-19 04:30N 38°40' W 009°18'4 8.8
2018-Oct-19 04:03N 38°38' W 009°22'0 8.2
2018-Oct-19 04:01N 38°37' W 009°22'4 8.1
2018-Oct-19 03:30N 38°33' W 009°23'4 9.2
2018-Oct-19 03:03N 38°29' W 009°23'0 8.7
2018-Oct-19 03:00N 38°29' W 009°23'5 9.4
2018-Oct-19 02:31N 38°24' W 009°22'510.7
2018-Oct-19 02:04N 38°19' W 009°22'111.4
2018-Oct-19 02:01N 38°19' W 009°22'611.4
2018-Oct-19 01:30N 38°13' W 009°22'511.4
2018-Oct-19 01:04N 38°08' W 009°22'111.4
2018-Oct-19 01:01N 38°07' W 009°22'611.3
2018-Oct-19 00:30N 38°02' W 009°22'511.1
2018-Oct-19 00:03N 37°57' W 009°22'110.3
2018-Oct-19 00:00N 37°56' W 009°22'611.1
2018-Oct-18 23:30N 37°51' W 009°22'511.2
2018-Oct-18 23:03N 37°46' W 009°22'110.4
2018-Oct-18 23:01N 37°45' W 009°22'611.0
2018-Oct-18 22:30N 37°39' W 009°21'512.1
2018-Oct-18 22:03N 37°34' W 009°21'112.6
2018-Oct-18 22:00N 37°33' W 009°21'2512.2
2018-Oct-18 19:59N 37°09' W 009°20'37 6.8
2018-Oct-18 14:30N 37°03' W 008°34'5 3.2
2018-Oct-18 12:58N 37°08' W 008°32'0 0.0
2018-Oct-18 12:28N 37°08' W 008°32'0 0.0
2018-Oct-18 11:58N 37°08' W 008°32'0 0.0
2018-Oct-18 11:28N 37°08' W 008°32'0 0.0
2018-Oct-18 10:58N 37°08' W 008°32'0 0.0
2018-Oct-18 10:28N 37°08' W 008°32'0 0.0
2018-Oct-18 10:01N 37°08' W 008°32'0 0.0
2018-Oct-18 09:58N 37°08' W 008°32'0 0.0
2018-Oct-18 09:28N 37°08' W 008°32'0 0.0
2018-Oct-18 09:01N 37°08' W 008°32'0 0.0
2018-Oct-18 08:58N 37°08' W 008°32'0 0.0
2018-Oct-18 08:28N 37°08' W 008°32'0 0.0
2018-Oct-18 07:58N 37°08' W 008°32'0 0.0
2018-Oct-18 07:10N 37°08' W 008°32'0 0.0
2018-Oct-18 07:01N 37°08' W 008°32'0 0.0
2018-Oct-18 06:58N 37°08' W 008°32'0 0.2
2018-Oct-18 06:31N 37°08' W 008°32'2 5.5
2018-Oct-18 06:03N 37°05' W 008°32'0 7.8
2018-Oct-18 06:00N 37°05' W 008°32'510.9
2018-Oct-18 05:30N 37°02' W 008°25'512.1
2018-Oct-18 05:03N 37°01' W 008°19'112.5
2018-Oct-18 05:00N 37°00' W 008°18'612.3
2018-Oct-18 04:31N 36°58' W 008°11'612.2
2018-Oct-18 03:59N 36°56' W 008°04'612.5
2018-Oct-18 03:30N 36°53' W 007°57'7411.4
2018-Oct-17 21:01N 36°35' W 006°27'011.7
2018-Oct-17 21:00N 36°35' W 006°27'611.4
2018-Oct-17 20:30N 36°34' W 006°20'3 6.0
2018-Oct-17 20:03N 36°32' W 006°17'0 1.3
2018-Oct-17 20:00N 36°32' W 006°17'0 0.0
2018-Oct-17 19:30N 36°32' W 006°17'0 0.0
2018-Oct-17 19:03N 36°32' W 006°17'0 0.0
2018-Oct-17 19:00N 36°32' W 006°17'0 0.0
2018-Oct-17 18:24N 36°32' W 006°17'0 0.0
2018-Oct-17 18:03N 36°32' W 006°17'0 0.0
2018-Oct-17 18:00N 36°32' W 006°17'0 0.0
2018-Oct-17 17:30N 36°32' W 006°17'0 0.0
2018-Oct-17 17:03N 36°32' W 006°17'0 0.0
2018-Oct-17 16:57N 36°32' W 006°17'0 0.0
2018-Oct-17 16:30N 36°32' W 006°17'0 0.0
2018-Oct-17 16:03N 36°32' W 006°17'0 0.0
2018-Oct-17 16:00N 36°32' W 006°17'0 0.0
2018-Oct-17 15:24N 36°32' W 006°17'0 0.0
2018-Oct-17 15:03N 36°32' W 006°17'0 0.0
2018-Oct-17 15:00N 36°32' W 006°17'0 0.0
2018-Oct-17 14:03N 36°32' W 006°17'0 0.0
2018-Oct-17 13:27N 36°32' W 006°17'0 0.0
2018-Oct-17 12:54N 36°32' W 006°17'0 0.0
2018-Oct-17 12:30N 36°32' W 006°17'0 0.0
2018-Oct-17 12:00N 36°32' W 006°17'0 0.0
2018-Oct-17 11:27N 36°32' W 006°17'0 0.0
2018-Oct-17 10:57N 36°32' W 006°17'0 0.0
2018-Oct-17 10:30N 36°32' W 006°17'0 0.0
2018-Oct-17 10:03N 36°32' W 006°17'0 0.0
2018-Oct-17 10:00N 36°32' W 006°17'0 0.0
2018-Oct-17 09:27N 36°32' W 006°17'0 0.0
2018-Oct-17 09:03N 36°32' W 006°17'0 0.1
2018-Oct-17 09:00N 36°32' W 006°17'0 0.0
2018-Oct-17 08:21N 36°32' W 006°17'0 0.0
2018-Oct-17 08:03N 36°32' W 006°17'0 0.1
2018-Oct-17 08:00N 36°32' W 006°17'0 0.0
2018-Oct-17 07:30N 36°32' W 006°17'0 0.0
2018-Oct-17 07:00N 36°32' W 006°17'0 0.0
2018-Oct-17 06:30N 36°32' W 006°17'0 0.0
2018-Oct-17 06:03N 36°32' W 006°17'0 0.0
2018-Oct-17 06:00N 36°32' W 006°17'0 0.0
2018-Oct-17 05:24N 36°32' W 006°17'0 0.0
2018-Oct-17 05:03N 36°32' W 006°17'0 0.0
2018-Oct-17 05:00N 36°32' W 006°17'0 0.2
2018-Oct-17 04:30N 36°32' W 006°17'1 3.3
2018-Oct-17 04:03N 36°33' W 006°18'0 9.2
2018-Oct-17 04:00N 36°34' W 006°19'3 6.1
2018-Oct-17 03:30N 36°33' W 006°22'3 5.9
2018-Oct-17 03:03N 36°31' W 006°25'0 6.1
2018-Oct-17 03:00N 36°31' W 006°25'55 2.7
2018-Oct-16 06:19N 36°08' W 005°23'2 7.7
2018-Oct-16 06:03N 36°06' W 005°22'0 6.1
2018-Oct-16 05:59N 36°06' W 005°22'3 7.1
2018-Oct-16 05:30N 36°06' W 005°18'4 8.4
2018-Oct-16 05:03N 36°08' W 005°14'0 8.2
2018-Oct-16 05:00N 36°08' W 005°13'  
2018-Oct-13 16:17N 37°09' W 000°57'3 8.5
2018-Oct-13 15:59N 37°10' W 000°54'5 8.4
2018-Oct-13 15:27N 37°13' W 000°49'3 8.4
2018-Oct-13 15:03N 37°15' W 000°46'1 8.3
2018-Oct-13 15:00N 37°15' W 000°46'4 8.5
2018-Oct-13 14:30N 37°17' W 000°41'11 8.7
2018-Oct-13 13:15N 37°24' W 000°30'2 8.6
2018-Oct-13 13:01N 37°25' W 000°28'0 8.7
2018-Oct-13 12:59N 37°25' W 000°27'5 9.0
2018-Oct-13 12:23N 37°28' W 000°22'4 9.3
2018-Oct-13 12:01N 37°30' W 000°18'0 9.2
2018-Oct-13 12:00N 37°30' W 000°18'5 9.6
2018-Oct-13 11:26N 37°33' W 000°13'4 9.6
2018-Oct-13 11:01N 37°36' W 000°09'0 9.9
2018-Oct-13 11:00N 37°36' W 000°09'7 9.7
2018-Oct-13 10:15N 37°40' W 000°01'155 9.8
2018-Oct-12 18:32N 39°22' E 002°28'111.5
2018-Oct-12 18:29N 39°22' E 002°28'410.2
2018-Oct-12 18:03N 39°26' E 002°32'110.1
2018-Oct-12 18:00N 39°26' E 002°33'510.1
2018-Oct-12 17:30N 39°30' E 002°37'4 7.9
2018-Oct-12 17:03N 39°33' E 002°38'0 4.1
2018-Oct-12 17:00N 39°33' E 002°38'0 0.1
2018-Oct-12 16:30N 39°33' E 002°38'0 0.0
2018-Oct-12 16:03N 39°33' E 002°38'0 0.0
2018-Oct-12 16:00N 39°33' E 002°38'0 0.0
2018-Oct-12 15:27N 39°33' E 002°38'0 0.0
2018-Oct-12 15:03N 39°33' E 002°38'0 0.0
2018-Oct-12 15:00N 39°33' E 002°38'0 0.0
2018-Oct-12 14:03N 39°33' E 002°38'0 0.0
2018-Oct-12 14:00N 39°33' E 002°38'0 0.0
2018-Oct-12 13:30N 39°33' E 002°38'0 0.0
2018-Oct-12 13:03N 39°33' E 002°38'0 0.0
2018-Oct-12 13:00N 39°33' E 002°38'0 0.0
2018-Oct-12 12:30N 39°33' E 002°38'0 0.0
2018-Oct-12 12:03N 39°33' E 002°38'0 0.0
2018-Oct-12 12:00N 39°33' E 002°38'0 0.0
2018-Oct-12 11:27N 39°33' E 002°38'0 0.0
2018-Oct-12 11:03N 39°33' E 002°38'0 0.0
2018-Oct-12 11:00N 39°33' E 002°38'0 0.0
2018-Oct-12 10:30N 39°33' E 002°38'0 0.0
2018-Oct-12 10:03N 39°33' E 002°38'0 0.0
2018-Oct-12 10:00N 39°33' E 002°38'0 0.0
2018-Oct-12 09:30N 39°33' E 002°38'0 0.0
2018-Oct-12 09:03N 39°33' E 002°38'0 0.0
2018-Oct-12 09:00N 39°33' E 002°38'0 0.0
2018-Oct-12 08:30N 39°33' E 002°38'0 0.0
2018-Oct-12 08:03N 39°33' E 002°38'0 0.0
2018-Oct-12 08:00N 39°33' E 002°38'0 0.0
2018-Oct-12 07:30N 39°33' E 002°38'0 0.0
2018-Oct-12 07:03N 39°33' E 002°38'0 0.0
2018-Oct-12 07:00N 39°33' E 002°38'0 0.0
2018-Oct-12 06:30N 39°33' E 002°38'0 0.7
2018-Oct-12 06:03N 39°33' E 002°38'0 4.1
2018-Oct-12 06:00N 39°33' E 002°39'4 8.2
2018-Oct-12 05:30N 39°30' E 002°36'4 8.6
2018-Oct-12 05:03N 39°27' E 002°33'0 7.9
2018-Oct-12 05:00N 39°26' E 002°33'4 7.6
2018-Oct-12 04:30N 39°26' E 002°28'4 7.1
2018-Oct-12 04:00N 39°29' E 002°24'91 8.6
2018-Oct-11 17:28N 40°59' E 002°14'611.9
2018-Oct-11 16:56N 41°06' E 002°14'511.6
2018-Oct-11 16:31N 41°10' E 002°14'511.2
2018-Oct-11 16:03N 41°16' E 002°14'110.9
2018-Oct-11 16:01N 41°16' E 002°14'5 9.8
2018-Oct-11 15:30N 41°21' E 002°12'2 1.4
2018-Oct-11 14:22N 41°22' E 002°11'0 0.0
2018-Oct-11 12:52N 41°22' E 002°11'0 0.0
2018-Oct-11 12:04N 41°22' E 002°11'0 0.0
2018-Oct-11 11:58N 41°22' E 002°11'0 0.0
2018-Oct-11 11:25N 41°22' E 002°11'0 0.0
2018-Oct-11 10:31N 41°22' E 002°11'0 0.0
2018-Oct-11 10:28N 41°22' E 002°11'0 0.0
2018-Oct-11 10:01N 41°22' E 002°11'0 0.0
2018-Oct-11 09:52N 41°22' E 002°11'0 0.0
2018-Oct-11 09:28N 41°22' E 002°11'0 0.0
2018-Oct-11 08:52N 41°22' E 002°11'0 0.0
2018-Oct-11 08:28N 41°22' E 002°11'112 7.2
2018-Oct-10 16:47N 39°30' E 002°22'310.5
2018-Oct-10 16:30N 39°28' E 002°25'510.6
2018-Oct-10 16:03N 39°26' E 002°30'111.1
2018-Oct-10 16:00N 39°26' E 002°31'510.3
2018-Oct-10 15:30N 39°29' E 002°36'4 9.3
2018-Oct-10 15:03N 39°33' E 002°39'0 7.6
2018-Oct-10 15:00N 39°33' E 002°38'0 0.6
2018-Oct-10 14:28N 39°33' E 002°38'0 0.0
2018-Oct-10 13:58N 39°33' E 002°38'  

Dump ship's entire track history